Time;durP1;ratioP1;P1;durP2;ratioP2;P2;SDS_P1;SDS_P2;PMS_P1;PMS_P2;Temp;Humidity;BMP_temperature;BMP_pressure;BME280_temperature;BME280_humidity;BME280_pressure;Samples;Min_cycle;Max_cycle;Signal;HPM_P1;HPM_P2
2022/05/17 00:09:24;;;;;;;4.78;1.92;;;15.30;99.90;;;;;;20586576;28;20454;-79
2022/05/17 00:19:26;;;;;;;2.42;0.95;;;15.20;99.90;;;;;;20570597;28;20061;-79
2022/05/17 00:29:28;;;;;;;4.28;0.93;;;15.20;99.90;;;;;;20580476;28;20161;-79
2022/05/17 00:39:29;;;;;;;2.10;1.30;;;15.10;99.90;;;;;;20552795;28;20622;-79
2022/05/17 00:49:33;;;;;;;2.17;0.93;;;15.10;99.90;;;;;;20546624;28;20046;-79
2022/05/17 00:59:36;;;;;;;6.10;0.85;;;14.90;99.90;;;;;;20593416;28;20518;-79
2022/05/17 01:09:38;;;;;;;2.88;1.02;;;14.90;99.90;;;;;;20584929;28;20104;-80
2022/05/17 01:19:41;;;;;;;3.78;0.95;;;14.80;99.90;;;;;;20575456;28;20158;-80
2022/05/17 01:29:45;;;;;;;1.88;1.15;;;14.90;99.90;;;;;;20596071;28;20045;-80
2022/05/17 01:39:47;;;;;;;2.42;0.90;;;14.80;99.90;;;;;;20603467;28;20408;-79
2022/05/17 01:49:48;;;;;;;3.40;1.67;;;14.70;99.90;;;;;;20594749;28;20046;-80
2022/05/17 01:59:49;;;;;;;2.65;0.88;;;14.70;99.90;;;;;;20526849;28;20155;-80
2022/05/17 02:09:50;;;;;;;2.08;0.88;;;14.60;99.90;;;;;;20526614;28;20512;-80
2022/05/17 02:19:52;;;;;;;1.70;0.80;;;14.50;99.90;;;;;;20520000;28;20042;-79
2022/05/17 02:29:54;;;;;;;1.98;1.15;;;14.30;99.90;;;;;;20506785;28;20051;-80
2022/05/17 02:39:55;;;;;;;1.48;0.70;;;14.30;99.90;;;;;;20524352;28;20043;-79
2022/05/17 02:49:56;;;;;;;2.63;1.15;;;14.20;99.90;;;;;;20522627;28;20047;-80
2022/05/17 02:59:57;;;;;;;1.95;0.70;;;14.10;99.90;;;;;;20586828;28;20394;-79
2022/05/17 03:09:59;;;;;;;3.10;0.80;;;14.10;99.90;;;;;;20587584;28;20410;-79
2022/05/17 03:20:02;;;;;;;3.83;1.05;;;14.20;99.90;;;;;;20589707;28;20061;-79
2022/05/17 03:30:05;;;;;;;3.55;1.20;;;14.20;99.90;;;;;;20582366;28;20432;-80
2022/05/17 03:40:11;;;;;;;2.47;0.98;;;14.30;99.90;;;;;;20586310;28;20046;-79
2022/05/17 03:50:13;;;;;;;2.28;1.00;;;14.40;99.90;;;;;;20583039;28;20789;-79
2022/05/17 04:00:15;;;;;;;3.17;1.13;;;14.40;99.90;;;;;;20565775;28;20043;-79
2022/05/17 04:10:17;;;;;;;2.17;1.15;;;14.50;99.90;;;;;;20584140;28;20054;-80
2022/05/17 04:20:18;;;;;;;6.68;1.88;;;14.50;99.90;;;;;;20586166;28;20053;-80
2022/05/17 04:30:22;;;;;;;2.83;1.30;;;14.60;99.90;;;;;;20573417;28;20623;-80
2022/05/17 04:40:23;;;;;;;3.55;1.20;;;14.70;99.90;;;;;;20617567;28;20326;-79
2022/05/17 04:50:24;;;;;;;2.97;1.30;;;14.90;99.90;;;;;;20596814;28;20222;-79
2022/05/17 05:00:26;;;;;;;5.07;1.42;;;15.00;99.90;;;;;;20589560;28;20054;-80
2022/05/17 05:10:27;;;;;;;2.63;1.20;;;15.00;99.90;;;;;;20581333;28;20686;-79
2022/05/17 05:20:30;;;;;;;3.35;1.33;;;15.10;99.90;;;;;;20589156;28;20099;-80
2022/05/17 05:30:31;;;;;;;2.63;1.10;;;15.20;99.90;;;;;;20594956;28;20138;-80
2022/05/17 05:40:32;;;;;;;1.48;0.70;;;15.30;99.90;;;;;;20594528;28;20092;-80
2022/05/17 05:50:35;;;;;;;2.15;0.90;;;15.50;99.90;;;;;;20573909;28;20069;-79
2022/05/17 06:00:37;;;;;;;3.13;1.35;;;15.60;99.90;;;;;;20595628;28;20152;-79
2022/05/17 06:10:38;;;;;;;2.75;1.25;;;15.80;99.90;;;;;;20572549;28;20505;-80
2022/05/17 06:20:40;;;;;;;5.32;1.15;;;15.90;99.90;;;;;;20571513;28;20057;-80
2022/05/17 06:30:43;;;;;;;3.38;1.48;;;15.90;99.90;;;;;;20592679;28;20046;-79
2022/05/17 06:40:44;;;;;;;2.53;1.25;;;16.00;99.90;;;;;;20579135;28;20043;-80
2022/05/17 06:50:46;;;;;;;2.20;0.93;;;16.20;99.90;;;;;;20565660;28;20047;-80
2022/05/17 07:00:47;;;;;;;2.35;0.98;;;16.30;99.90;;;;;;20581253;28;20145;-80
2022/05/17 07:21:10;;;;;;;3.33;0.47;;;16.20;99.90;;;;;;20592492;28;20603;-79
2022/05/17 07:31:11;;;;;;;2.47;1.25;;;16.10;99.90;;;;;;20626662;28;20038;-80
2022/05/17 07:41:12;;;;;;;2.67;0.70;;;16.00;99.90;;;;;;20583400;28;20402;-80
2022/05/17 07:51:13;;;;;;;2.30;0.65;;;16.00;99.90;;;;;;20588685;28;20835;-79
2022/05/17 08:01:18;;;;;;;1.50;0.70;;;16.10;99.90;;;;;;20527972;28;20055;-80
2022/05/17 08:11:19;;;;;;;1.60;0.60;;;16.30;99.90;;;;;;20518966;28;20047;-80
2022/05/17 08:21:20;;;;;;;2.15;0.82;;;16.50;99.90;;;;;;20540565;28;20045;-80
2022/05/17 08:31:23;;;;;;;2.92;1.05;;;16.90;99.90;;;;;;20519281;28;20050;-80
2022/05/17 08:41:41;;;;;;;2.08;0.73;;;17.10;99.90;;;;;;20513616;28;20050;-80
2022/05/17 08:52:02;;;;;;;1.70;0.38;;;17.10;99.90;;;;;;20539711;28;20553;-80
2022/05/17 09:02:20;;;;;;;2.75;0.75;;;17.30;99.90;;;;;;20575994;28;20641;-80
2022/05/17 09:12:24;;;;;;;;;;;17.80;99.90;;;;;;20610012;28;20118;-80
2022/05/17 09:22:25;;;;;;;1.83;0.70;;;18.20;99.90;;;;;;20616456;28;19913;-80
2022/05/17 09:32:33;;;;;;;1.58;0.65;;;18.40;99.90;;;;;;20586337;28;20130;-82
2022/05/17 09:42:43;;;;;;;1.52;0.60;;;18.80;99.90;;;;;;20603654;28;20424;-80
2022/05/17 09:53:03;;;;;;;2.40;0.47;;;19.20;99.90;;;;;;20594509;28;22233;-79
2022/05/17 10:03:25;;;;;;;2.88;1.40;;;19.40;99.90;;;;;;20610093;28;20416;-80
2022/05/17 10:13:32;;;;;;;4.88;1.17;;;19.60;99.90;;;;;;20612664;28;20053;-81
2022/05/17 10:23:50;;;;;;;;;;;19.70;99.90;;;;;;20627990;28;20077;-80
2022/05/17 10:34:03;;;;;;;2.97;1.53;;;19.90;99.90;;;;;;20616272;28;19921;-80
2022/05/17 10:44:04;;;;;;;2.08;1.45;;;19.90;99.90;;;;;;20645413;28;20043;-80
2022/05/17 10:54:25;;;;;;;3.10;0.70;;;20.40;99.90;;;;;;20620618;28;20125;-80
2022/05/17 11:04:36;;;;;;;2.50;0.70;;;20.90;99.90;;;;;;20614218;28;20513;-81
2022/05/17 11:14:50;;;;;;;2.42;0.90;;;21.60;99.90;;;;;;20570407;28;20054;-81
2022/05/17 11:25:29;;;;;;;2.22;0.73;;;22.10;99.90;;;;;;20575775;28;20041;-80
2022/05/17 11:35:30;;;;;;;3.08;1.38;;;22.80;99.90;;;;;;20574078;28;20793;-81
2022/05/17 11:45:50;;;;;;;2.83;1.15;;;22.80;99.90;;;;;;20593993;28;20046;-80
2022/05/17 11:56:14;;;;;;;2.08;1.05;;;23.00;99.90;;;;;;20594333;28;20050;-80
2022/05/17 12:06:56;;;;;;;2.45;1.40;;;22.60;99.90;;;;;;20587352;28;20560;-81
2022/05/17 12:17:11;;;;;;;2.08;1.30;;;22.80;99.90;;;;;;20591853;28;20042;-80
2022/05/17 12:27:21;;;;;;;3.63;1.50;;;24.10;99.90;;;;;;20588267;28;20081;-81
2022/05/17 12:37:26;;;;;;;2.55;1.30;;;24.20;99.90;;;;;;20572992;28;20057;-80
2022/05/17 12:47:36;;;;;;;2.90;1.40;;;24.20;99.90;;;;;;20588621;28;20107;-81
2022/05/17 12:57:39;;;;;;;2.55;1.00;;;24.60;99.90;;;;;;20591729;28;20114;-80
2022/05/17 13:07:40;;;;;;;4.75;2.13;;;24.60;99.90;;;;;;20578518;28;20042;-81
2022/05/17 13:17:43;;;;;;;4.72;1.30;;;24.30;99.90;;;;;;20595553;28;20046;-80
2022/05/17 13:27:48;;;;;;;3.45;0.88;;;25.40;99.90;;;;;;20575344;28;20039;-82
2022/05/17 13:38:08;;;;;;;2.30;1.10;;;26.20;99.90;;;;;;20569690;28;20145;-81
2022/05/17 13:48:15;;;;;;;3.55;1.02;;;26.10;99.90;;;;;;20582729;28;20155;-82
2022/05/17 13:58:16;;;;;;;3.47;1.20;;;26.20;99.90;;;;;;20565361;28;20050;-80
2022/05/17 14:18:46;;;;;;;1.45;0.60;;;25.50;99.90;;;;;;20601604;28;20049;-80
2022/05/17 14:28:48;;;;;;;1.70;1.00;;;25.60;99.90;;;;;;20582987;28;20089;-81
2022/05/17 14:38:51;;;;;;;3.55;1.45;;;25.40;99.90;;;;;;20589915;28;20126;-81
2022/05/17 14:48:53;;;;;;;4.20;1.83;;;25.30;99.90;;;;;;20570510;28;20049;-81
2022/05/17 14:58:54;;;;;;;5.68;1.48;;;25.10;99.90;;;;;;20588020;28;20092;-81
2022/05/17 15:08:59;;;;;;;2.75;1.50;;;25.10;99.90;;;;;;20571016;28;20089;-81
2022/05/17 15:19:01;;;;;;;3.78;1.90;;;25.30;99.90;;;;;;20574748;28;20496;-79
2022/05/17 15:29:02;;;;;;;2.78;1.17;;;25.10;99.90;;;;;;20561389;28;20045;-79
2022/05/17 15:39:04;;;;;;;2.63;1.42;;;24.90;99.90;;;;;;20585959;28;20038;-79
2022/05/17 15:59:25;;;;;;;3.38;1.67;;;25.20;99.90;;;;;;20600663;28;20053;-79
2022/05/17 16:09:26;;;;;;;2.38;1.05;;;25.00;99.90;;;;;;20577389;28;20477;-80
2022/05/17 16:19:31;;;;;;;13.90;1.00;;;24.80;99.90;;;;;;20622192;28;20165;-80
2022/05/17 16:29:33;;;;;;;3.03;1.08;;;24.80;99.90;;;;;;20622443;28;20103;-80
2022/05/17 16:39:38;;;;;;;1.85;0.80;;;24.60;99.90;;;;;;20630601;28;20042;-79
2022/05/17 16:49:39;;;;;;;3.20;1.17;;;24.60;99.90;;;;;;20613682;28;20402;-82
2022/05/17 16:59:42;;;;;;;1.38;0.60;;;24.70;99.90;;;;;;20603824;28;20383;-83
2022/05/17 17:09:43;;;;;;;4.68;0.68;;;24.60;99.90;;;;;;20597454;28;20045;-80
2022/05/17 17:19:44;;;;;;;4.35;1.95;;;24.50;99.90;;;;;;20599233;28;20049;-80
2022/05/17 17:29:45;;;;;;;2.00;0.90;;;24.40;99.90;;;;;;20549300;28;20037;-81
2022/05/17 17:39:46;;;;;;;1.52;0.63;;;24.30;99.90;;;;;;20594026;28;20046;-80
2022/05/17 17:49:48;;;;;;;3.17;1.17;;;24.20;99.90;;;;;;20593397;28;20058;-82
2022/05/17 17:59:49;;;;;;;2.28;0.98;;;24.10;99.90;;;;;;20574773;28;20482;-80
2022/05/17 18:09:51;;;;;;;2.10;1.23;;;23.90;99.90;;;;;;20576841;28;20262;-81
2022/05/17 18:19:52;;;;;;;2.42;1.15;;;23.80;99.90;;;;;;20575169;28;20162;-80
2022/05/17 18:29:53;;;;;;;3.40;1.10;;;23.70;99.90;;;;;;20585299;28;20062;-80
2022/05/17 18:39:56;;;;;;;2.30;1.05;;;23.50;99.90;;;;;;20606196;28;20502;-80
2022/05/17 18:49:57;;;;;;;3.53;1.48;;;23.50;99.90;;;;;;20581175;28;20254;-80
2022/05/17 18:59:58;;;;;;;7.80;1.52;;;23.20;99.90;;;;;;20586612;28;20525;-80
2022/05/17 19:20:27;;;;;;;5.88;1.08;;;23.00;99.90;;;;;;20772747;27;20622;-39
2022/05/17 19:30:29;;;;;;;2.28;1.25;;;22.80;99.90;;;;;;20820296;28;20511;-39
2022/05/17 19:40:34;;;;;;;1.88;0.88;;;22.60;99.90;;;;;;20845333;28;20044;-39
2022/05/17 19:50:39;;;;;;;2.03;1.10;;;22.40;99.90;;;;;;20846505;28;20030;-39
2022/05/17 20:00:44;;;;;;;4.13;1.10;;;22.30;99.90;;;;;;20839128;28;20041;-39
2022/05/17 20:10:45;;;;;;;1.90;0.95;;;22.20;99.90;;;;;;20836282;28;20056;-39
2022/05/17 20:20:46;;;;;;;2.83;0.73;;;21.90;99.90;;;;;;20843633;28;20048;-39
2022/05/17 20:30:51;;;;;;;2.22;0.90;;;21.80;99.90;;;;;;20789720;28;20056;-39
2022/05/17 20:40:52;;;;;;;2.67;1.38;;;21.70;99.90;;;;;;20788907;28;20771;-39
2022/05/17 20:50:53;;;;;;;2.10;0.80;;;21.60;99.90;;;;;;20778668;28;20029;-39
2022/05/17 21:00:54;;;;;;;2.20;0.98;;;21.40;99.90;;;;;;20779640;28;20037;-39
2022/05/17 21:10:56;;;;;;;6.43;1.70;;;21.20;99.90;;;;;;20785861;28;20058;-39
2022/05/17 21:20:57;;;;;;;4.00;1.20;;;21.10;99.90;;;;;;20785717;28;20469;-39
2022/05/17 21:30:58;;;;;;;2.35;1.15;;;20.90;99.90;;;;;;20792469;28;20044;-39
2022/05/17 21:41:00;;;;;;;2.10;0.90;;;20.70;99.90;;;;;;20816674;28;20508;-39
2022/05/17 21:51:01;;;;;;;2.53;1.17;;;20.50;99.90;;;;;;20795805;28;20357;-39
2022/05/17 22:01:02;;;;;;;2.40;1.10;;;20.30;99.90;;;;;;20791921;28;20037;-40
2022/05/17 22:21:25;;;;;;;2.88;1.30;;;20.00;99.90;;;;;;20792473;28;20029;-39
2022/05/17 22:31:27;;;;;;;2.78;1.55;;;19.90;99.90;;;;;;20793301;28;20044;-39
2022/05/17 22:41:28;;;;;;;2.95;1.65;;;19.80;99.90;;;;;;20795793;28;20029;-39
2022/05/17 22:51:29;;;;;;;2.50;1.25;;;19.70;99.90;;;;;;20789269;28;20048;-39
2022/05/17 23:01:31;;;;;;;4.57;2.33;;;19.60;99.90;;;;;;20792951;28;20060;-39
2022/05/17 23:11:32;;;;;;;6.75;1.60;;;19.40;99.90;;;;;;20806358;28;20370;-39
2022/05/17 23:21:36;;;;;;;3.22;1.45;;;19.10;99.90;;;;;;20784297;28;20045;-39
2022/05/17 23:31:37;;;;;;;5.30;2.13;;;19.00;99.90;;;;;;20791638;28;20033;-39
2022/05/17 23:41:38;;;;;;;2.53;1.27;;;18.90;99.90;;;;;;20787203;28;20397;-39
2022/05/17 23:51:40;;;;;;;3.13;1.45;;;18.70;99.90;;;;;;20795929;28;20221;-39
